Página principal
METAR-TAF:

METAR-TAF

Aeroportos :

Egegik, Alasca, Estados Unidos

latitude: 58-11-07N, longitude: 157-23-08W, altura: 28 m

Observação actual do tempo

O boletim foi feito há 6 horas e 49 minutos, às 16:56 UTC
Vento 5 kt de sudoeste
Temperatura 16°C
Humidade 77%
Pressão 1018 hPa
Visibilidade: 16.1 km
Céu limpo

METAR: PAII 221656Z AUTO 23005KT 10SM CLR 16/12 A3005 RMK AO2 SLP174 T01560122

Hora: 15:45 (23:45 UTC)


TAF: em falta

Observações e previsões do tempo de mais de 4000 aeroportos (mensagens METAR e TAF).

As estações disponíveis são os pontos amarelos e vermelhos sobre o mapa.

Mova o rato sobre o mapa para ver o nome da estação.

Depois clique no ponto para visualizar as observações e previsões meteorológicas.

Para alterar o mapa : clique nos botões verdes com uma cruz preta para aumentar o zoom; no botão verde com uma pitada de zoom; ou nas setas verdes para mapas adjacentes.


METAR-TAF: